< Typhoon 199115 1991 Season Typhoon 199117 >
Typhoon 199116 (JOEL)
General InformationTrack Information on Google MapsDetailed Wind InformationList of All Images || Disaster Info.ResourceGoogle EarthGE AnimationAtom FeedGeoJSON
Detalied Best Track (Time Zone = UTC)
Year Month Day Hour Lat. Long. Pressure (hPa) Wind (kt) Class Image Chart
1991 9 3 12 19.0 118.0 1002 0 2 Image Chart
1991 9 3 18 19.2 117.8 1002 0 2 Image Chart
1991 9 4 00 19.5 117.5 1000 0 2 Image Chart
1991 9 4 06 19.9 116.8 1000 0 2 Image Chart
1991 9 4 12 20.0 115.6 1000 0 2 Image Chart
1991 9 4 18 20.6 115.0 1000 0 2 Image Chart
1991 9 5 00 20.6 114.7 1000 0 2 Image Chart
1991 9 5 03 20.6 114.7 1000 35 3 Image Chart
1991 9 5 06 20.6 114.6 998 35 3 Image Chart
1991 9 5 12 20.5 115.2 996 40 3 Image Chart
1991 9 5 18 20.5 115.2 996 40 3 Image Chart
1991 9 6 00 21.2 115.1 992 45 3 Image Chart
1991 9 6 06 21.9 115.6 990 45 3 Image Chart
1991 9 6 12 22.7 115.5 985 45 3 Image Chart
1991 9 6 18 22.9 115.1 985 45 3 Image Chart
1991 9 7 00 23.5 114.8 990 40 3 Image Chart
1991 9 7 06 24.6 114.5 994 35 3 Image Chart
1991 9 7 12 25.2 114.2 996 0 2 Image Chart
1991 9 7 18 25.5 114.2 998 0 2 Image Chart
1991 9 8 00 26.0 114.0 1002 0 2 Image Chart
1991 9 8 06 26.7 114.2 1002 0 2 Image Chart
1991 9 8 12 27.8 114.2 1004 0 2 Image Chart
Japan Meteorological Agency Best Track Data | Correction Date : 1992-01-04
< Typhoon 199115 1991 Season Typhoon 199117 >

Help